Página principal
METAR-TAF:

METAR-TAF

Aeroportos :

Aeroporto Internacional de El Salvador

El Salvador, El Salvador

latitude: 13-26N, longitude: 089-03W, altura: 25 m

Observação actual do tempo

O boletim foi feito há 43 minutos, às 09:50 UTC
Vento 3 kt de nordeste, variando entre norte e este
Temperatura 26°C
Humidade 84%
Pressão 1011 hPa
Visibilidade 10 km ou mais
Poucas nuvensa uma altura de 4600 ft
Nuvens dispersasa uma altura de 5300 ft

METAR: MSLP 230950Z 04003KT 010V090 9999 FEW046 SCT053 26/23 Q1011 A2986 NOSIG

Hora: 04:33 (10:33 UTC)

Previsão

O boletim foi feito há 7 horas e 8 minutos, às 03:25 UTC
Previsão válida de 23 às 06 UTC a 24 às 06 UTC
Vento 3 kt com direcção variável
Visibilidade 10 km ou mais
Nuvens dispersasa uma altura de 6000 ft
A partir de 23 às 1800 UTC
Vento 12 kt de su-sudoeste
Visibilidade 10 km ou mais
Nuvens dispersasa uma altura de 3700 ft

TAF: MSLP 230325Z 2306/2406 VRB03KT 9999 SCT060 TX33/2318Z TN25/2312Z FM231800 21012KT 9999 SCT037

Observações e previsões do tempo de mais de 4000 aeroportos (mensagens METAR e TAF).

As estações disponíveis são os pontos amarelos e vermelhos sobre o mapa.

Mova o rato sobre o mapa para ver o nome da estação.

Depois clique no ponto para visualizar as observações e previsões meteorológicas.

Para alterar o mapa : clique nos botões verdes com uma cruz preta para aumentar o zoom; no botão verde com uma pitada de zoom; ou nas setas verdes para mapas adjacentes.


METAR-TAF: